Time;durP1;ratioP1;P1;durP2;ratioP2;P2;SDS_P1;SDS_P2;PMS_P1;PMS_P2;Temp;Humidity;BMP_temperature;BMP_pressure;BME280_temperature;BME280_humidity;BME280_pressure;Samples;Min_cycle;Max_cycle;Signal;HPM_P1;HPM_P2
2023/02/09 00:01:06;;;;;;;1.00;1.00;;;-4.20;94.50;;;;;;5037058;28;20726;-66
2023/02/09 00:03:33;;;;;;;1.70;1.65;;;-4.20;94.70;;;;;;5036820;28;20241;-67
2023/02/09 00:06:00;;;;;;;7.88;2.55;;;-4.20;94.50;;;;;;5036640;28;20220;-66
2023/02/09 00:08:26;;;;;;;1.17;1.17;;;-4.10;94.40;;;;;;5036701;28;20252;-67
2023/02/09 00:10:52;;;;;;;0.50;0.50;;;-4.20;94.30;;;;;;5035473;28;20195;-67
2023/02/09 00:13:23;;;;;;;1.67;1.57;;;-4.30;94.20;;;;;;5036553;28;20215;-66
2023/02/09 00:15:51;;;;;;;0.50;0.50;;;-4.40;94.40;;;;;;5036449;28;20180;-67
2023/02/09 00:18:17;;;;;;;0.80;0.80;;;-4.40;94.80;;;;;;5036800;28;20202;-66
2023/02/09 00:20:42;;;;;;;0.60;0.60;;;-4.30;95.10;;;;;;5036671;28;20197;-67
2023/02/09 00:23:08;;;;;;;0.93;0.93;;;-4.20;94.80;;;;;;5035255;28;20175;-66
2023/02/09 00:25:34;;;;;;;1.10;1.10;;;-4.20;95.00;;;;;;5036136;28;20194;-67
2023/02/09 00:27:59;;;;;;;1.70;1.70;;;-4.20;95.10;;;;;;5036606;28;20217;-67
2023/02/09 00:30:25;;;;;;;2.93;2.83;;;-4.20;94.90;;;;;;5036190;28;20195;-66
2023/02/09 00:32:50;;;;;;;0.83;0.83;;;-4.20;94.70;;;;;;5036283;28;20182;-67
2023/02/09 00:35:16;;;;;;;1.57;1.57;;;-4.30;94.70;;;;;;5036138;28;20249;-67
2023/02/09 00:37:42;;;;;;;0.87;0.87;;;-4.30;94.90;;;;;;5036502;28;20625;-67
2023/02/09 00:40:08;;;;;;;2.43;2.37;;;-4.40;94.90;;;;;;5036175;28;20210;-67
2023/02/09 00:42:34;;;;;;;0.70;0.70;;;-4.50;94.90;;;;;;5036080;28;20253;-66
2023/02/09 00:44:59;;;;;;;0.80;0.80;;;-4.50;94.90;;;;;;5036052;28;20254;-67
2023/02/09 00:47:25;;;;;;;0.87;0.87;;;-4.50;95.00;;;;;;5035970;28;20206;-67
2023/02/09 00:49:51;;;;;;;2.10;2.00;;;-4.40;95.20;;;;;;5035959;28;20171;-66
2023/02/09 00:52:16;;;;;;;1.63;1.63;;;-4.40;95.30;;;;;;5035892;28;20167;-67
2023/02/09 00:54:42;;;;;;;1.43;1.33;;;-4.30;95.20;;;;;;5035693;28;20590;-67
2023/02/09 00:57:08;;;;;;;0.57;0.57;;;-4.20;95.10;;;;;;5036000;28;20565;-67
2023/02/09 00:59:34;;;;;;;2.10;2.00;;;-4.20;95.00;;;;;;5035700;28;20175;-66
2023/02/09 01:02:01;;;;;;;0.57;0.57;;;-4.30;94.80;;;;;;5035594;28;20230;-67
2023/02/09 01:04:27;;;;;;;0.73;0.73;;;-4.30;94.40;;;;;;5032983;28;20666;-67
2023/02/09 01:06:52;;;;;;;0.95;0.95;;;-4.40;94.40;;;;;;5035719;28;20207;-66
2023/02/09 01:09:18;;;;;;;1.13;1.13;;;-4.50;94.50;;;;;;5035674;28;20529;-66
2023/02/09 01:11:43;;;;;;;0.60;0.60;;;-4.50;94.60;;;;;;5035390;28;20203;-67
2023/02/09 01:14:10;;;;;;;0.60;0.60;;;-4.50;94.90;;;;;;5035397;28;20173;-67
2023/02/09 01:16:36;;;;;;;0.65;0.65;;;-4.50;94.70;;;;;;5035245;28;20199;-67
2023/02/09 01:19:02;;;;;;;0.60;0.60;;;-4.50;94.70;;;;;;5035540;28;20651;-66
2023/02/09 01:21:28;;;;;;;1.02;1.02;;;-4.50;94.90;;;;;;5034012;28;20286;-66
2023/02/09 01:23:54;;;;;;;2.40;2.30;;;-4.50;95.00;;;;;;5035419;28;20258;-66
2023/02/09 01:26:20;;;;;;;0.60;0.60;;;-4.40;94.90;;;;;;5035236;28;20453;-66
2023/02/09 01:28:50;;;;;;;0.50;0.50;;;-4.40;94.70;;;;;;5035364;28;20413;-66
2023/02/09 01:31:28;;;;;;;0.70;0.70;;;-4.50;94.60;;;;;;5035212;28;20531;-67
2023/02/09 01:33:55;;;;;;;1.95;1.85;;;-4.50;94.50;;;;;;5035336;28;20178;-67
2023/02/09 01:36:21;;;;;;;1.58;1.52;;;-4.50;94.20;;;;;;5033849;28;20228;-67
2023/02/09 01:38:47;;;;;;;0.80;0.80;;;-4.50;94.00;;;;;;5035224;28;20179;-66
2023/02/09 01:41:13;;;;;;;1.80;1.80;;;-4.60;93.90;;;;;;5035045;28;20191;-67
2023/02/09 01:44:05;;;;;;;8.43;3.67;;;-4.60;93.90;;;;;;5035119;28;20190;-66
2023/02/09 01:46:33;;;;;;;0.50;0.50;;;-4.60;94.00;;;;;;5034800;28;20214;-67
2023/02/09 01:49:12;;;;;;;0.60;0.60;;;-4.60;94.10;;;;;;5035044;28;20579;-66
2023/02/09 01:51:51;;;;;;;1.42;1.42;;;-4.70;94.00;;;;;;5034913;28;20733;-66
2023/02/09 01:54:31;;;;;;;0.65;0.65;;;-4.70;94.20;;;;;;5034972;28;20229;-67
2023/02/09 01:57:02;;;;;;;0.90;0.90;;;-4.60;94.20;;;;;;5034943;28;20202;-66
2023/02/09 01:59:29;;;;;;;0.68;0.68;;;-4.60;94.40;;;;;;5034970;28;20171;-66
2023/02/09 02:01:55;;;;;;;1.55;1.55;;;-4.60;94.50;;;;;;5034689;28;20187;-66
2023/02/09 02:04:21;;;;;;;0.70;0.70;;;-4.60;94.60;;;;;;5034563;28;20187;-66
2023/02/09 02:06:47;;;;;;;1.45;1.45;;;-4.70;94.50;;;;;;5034581;28;20203;-67
2023/02/09 02:09:15;;;;;;;4.13;3.83;;;-4.80;94.40;;;;;;5034625;28;20173;-66
2023/02/09 02:11:46;;;;;;;0.73;0.73;;;-4.80;94.30;;;;;;5032911;28;20297;-67
2023/02/09 02:14:32;;;;;;;0.80;0.80;;;-4.80;94.00;;;;;;5034644;28;20560;-67
2023/02/09 02:17:19;;;;;;;2.40;2.30;;;-4.90;94.10;;;;;;5033900;28;20257;-66
2023/02/09 02:20:13;;;;;;;2.15;2.13;;;-4.90;93.80;;;;;;5034537;28;20193;-67
2023/02/09 02:23:17;;;;;;;1.00;1.00;;;-4.80;94.20;;;;;;5034218;28;20159;-66
2023/02/09 02:26:06;;;;;;;3.00;2.90;;;-4.70;94.30;;;;;;5034059;28;20686;-66
2023/02/09 02:29:05;;;;;;;2.72;2.65;;;-4.70;94.20;;;;;;5034342;28;20171;-66
2023/02/09 02:32:03;;;;;;;0.73;0.73;;;-4.70;94.40;;;;;;5034190;28;20190;-66
2023/02/09 02:34:34;;;;;;;0.60;0.60;;;-4.80;94.50;;;;;;5033980;28;20578;-67
2023/02/09 02:37:19;;;;;;;2.60;2.38;;;-4.90;94.50;;;;;;5034101;28;20167;-66
2023/02/09 02:39:48;;;;;;;0.60;0.60;;;-4.90;94.50;;;;;;5034068;28;20207;-66
2023/02/09 02:42:48;;;;;;;0.70;0.70;;;-4.90;94.50;;;;;;5033824;28;20175;-66
2023/02/09 02:45:54;;;;;;;1.13;1.13;;;-4.90;94.40;;;;;;5033731;28;20175;-66
2023/02/09 02:48:22;;;;;;;0.60;0.60;;;-4.80;94.20;;;;;;5033860;28;20179;-66
2023/02/09 02:51:00;;;;;;;2.55;2.45;;;-4.80;94.50;;;;;;5033457;28;20218;-66
2023/02/09 02:53:30;;;;;;;4.35;2.22;;;-4.80;94.20;;;;;;5033434;28;20163;-66
2023/02/09 02:56:21;;;;;;;0.88;0.88;;;-4.70;94.30;;;;;;5033243;28;20263;-67
2023/02/09 02:58:49;;;;;;;2.20;2.15;;;-4.80;94.20;;;;;;5030194;28;20219;-66
2023/02/09 03:01:21;;;;;;;0.63;0.63;;;-4.80;94.20;;;;;;5033320;28;20256;-66
2023/02/09 03:03:49;;;;;;;1.33;1.30;;;-4.80;94.10;;;;;;5033569;28;20167;-66
2023/02/09 03:06:16;;;;;;;0.80;0.80;;;-4.80;94.10;;;;;;5033304;28;20550;-66
2023/02/09 03:09:00;;;;;;;0.50;0.50;;;-4.80;94.10;;;;;;5033366;28;20531;-67
2023/02/09 03:11:35;;;;;;;0.93;0.93;;;-4.80;94.10;;;;;;5033240;28;20269;-67
2023/02/09 03:14:25;;;;;;;0.73;0.73;;;-4.90;94.00;;;;;;5031931;28;20182;-66
2023/02/09 03:17:04;;;;;;;0.75;0.75;;;-4.90;93.80;;;;;;5033280;28;20207;-66
2023/02/09 03:19:43;;;;;;;2.13;2.05;;;-4.90;93.70;;;;;;5033385;28;20228;-66
2023/02/09 03:22:38;;;;;;;0.60;0.60;;;-5.00;93.70;;;;;;5033352;28;20159;-66
2023/02/09 03:25:11;;;;;;;2.90;2.80;;;-5.00;93.80;;;;;;5032687;28;20187;-66
2023/02/09 03:27:46;;;;;;;1.50;1.50;;;-4.90;93.90;;;;;;5034415;28;20183;-66
2023/02/09 03:30:14;;;;;;;1.30;1.30;;;-4.90;93.80;;;;;;5037291;28;20586;-66
2023/02/09 03:32:43;;;;;;;2.20;2.00;;;-4.90;93.80;;;;;;5037498;28;20175;-66
2023/02/09 03:35:12;;;;;;;4.22;4.03;;;-4.90;93.80;;;;;;5037292;28;20238;-66
2023/02/09 03:37:38;;;;;;;1.38;1.38;;;-4.90;93.90;;;;;;5037352;28;20206;-67
2023/02/09 03:40:04;;;;;;;0.80;0.80;;;-4.90;94.00;;;;;;5037607;28;20672;-66
2023/02/09 03:42:30;;;;;;;0.70;0.70;;;-4.80;94.00;;;;;;5037149;28;20240;-67
2023/02/09 03:44:56;;;;;;;0.90;0.90;;;-4.80;94.10;;;;;;5036882;28;20179;-67
2023/02/09 03:47:21;;;;;;;0.50;0.50;;;-4.80;94.20;;;;;;5037117;28;20198;-66
2023/02/09 03:49:47;;;;;;;2.60;2.50;;;-5.00;96.60;;;;;;5036853;28;20249;-66
2023/02/09 03:52:14;;;;;;;0.50;0.50;;;-5.00;93.90;;;;;;5037223;28;20167;-67
2023/02/09 03:54:40;;;;;;;0.50;0.50;;;-5.00;94.00;;;;;;5036787;28;20177;-66
2023/02/09 03:57:07;;;;;;;0.93;0.93;;;-5.10;93.90;;;;;;5037088;28;20541;-66
2023/02/09 03:59:39;;;;;;;0.98;0.98;;;-5.10;94.10;;;;;;5036912;28;20425;-66
2023/02/09 04:02:07;;;;;;;0.50;0.50;;;-5.00;94.30;;;;;;5036748;28;20252;-66
2023/02/09 04:04:33;;;;;;;1.25;1.25;;;-5.00;94.30;;;;;;5036800;28;20163;-66
2023/02/09 04:06:58;;;;;;;2.10;2.00;;;-4.90;94.20;;;;;;5036855;28;20244;-66
2023/02/09 04:09:25;;;;;;;3.60;1.90;;;-4.90;93.90;;;;;;5036684;28;20406;-66
2023/02/09 04:11:51;;;;;;;1.77;1.77;;;-4.90;93.80;;;;;;5036771;28;20249;-66
2023/02/09 04:14:17;;;;;;;2.05;2.05;;;-4.90;93.90;;;;;;5036810;28;20203;-66
2023/02/09 04:16:43;;;;;;;0.75;0.75;;;-4.90;93.90;;;;;;5036438;28;20179;-67
2023/02/09 04:19:09;;;;;;;3.20;3.10;;;-5.00;93.70;;;;;;5036550;28;20272;-66
2023/02/09 04:21:36;;;;;;;0.50;0.50;;;-5.00;93.60;;;;;;5036578;28;20448;-66
2023/02/09 04:24:02;;;;;;;0.80;0.80;;;-5.00;93.60;;;;;;5036362;28;20654;-67
2023/02/09 04:26:27;;;;;;;0.83;0.83;;;-5.00;93.60;;;;;;5036204;28;20206;-67
2023/02/09 04:28:53;;;;;;;0.50;0.50;;;-4.90;93.50;;;;;;5036384;28;20171;-66
2023/02/09 04:31:18;;;;;;;0.80;0.80;;;-4.90;93.60;;;;;;5036321;28;20553;-66
2023/02/09 04:33:44;;;;;;;0.60;0.60;;;-4.90;93.70;;;;;;5036193;28;20178;-67
2023/02/09 04:36:11;;;;;;;0.60;0.60;;;-5.00;93.70;;;;;;5035973;28;20256;-66
2023/02/09 04:38:36;;;;;;;1.67;1.58;;;-5.00;93.60;;;;;;5035883;28;20175;-67
2023/02/09 04:41:03;;;;;;;0.90;0.90;;;-5.00;93.60;;;;;;5036033;28;20579;-66
2023/02/09 04:43:30;;;;;;;0.75;0.75;;;-5.00;93.70;;;;;;5036146;28;20178;-66
2023/02/09 04:45:56;;;;;;;0.70;0.70;;;-5.00;93.80;;;;;;5035778;28;20203;-66
2023/02/09 04:48:23;;;;;;;0.65;0.65;;;-5.00;93.80;;;;;;5036118;28;20167;-66
2023/02/09 04:50:49;;;;;;;1.90;1.85;;;-5.10;94.00;;;;;;5035930;28;20196;-66
2023/02/09 04:53:16;;;;;;;1.30;1.27;;;-5.00;94.20;;;;;;5035836;28;20237;-66
2023/02/09 04:55:43;;;;;;;0.52;0.52;;;-4.90;94.50;;;;;;5035631;28;20454;-66
2023/02/09 05:00:59;;;;;;;0.80;0.80;;;-4.90;94.70;;;;;;5035864;28;20695;-66
2023/02/09 05:03:25;;;;;;;0.60;0.60;;;-4.90;94.70;;;;;;5035689;28;20241;-66
2023/02/09 05:05:56;;;;;;;1.08;0.98;;;-4.90;94.70;;;;;;5035218;28;20194;-66
2023/02/09 05:08:22;;;;;;;0.60;0.60;;;-4.80;94.60;;;;;;5035670;28;20171;-66
2023/02/09 05:10:50;;;;;;;0.50;0.50;;;-4.90;94.40;;;;;;5034392;28;20190;-67
2023/02/09 05:13:16;;;;;;;0.60;0.60;;;-4.90;94.20;;;;;;5035480;28;20223;-66
2023/02/09 05:15:42;;;;;;;1.27;1.27;;;-4.90;94.10;;;;;;5034053;28;20203;-66
2023/02/09 05:18:07;;;;;;;2.30;2.03;;;-5.00;94.00;;;;;;5035427;28;20401;-66
2023/02/09 05:20:35;;;;;;;1.83;1.37;;;-5.00;94.10;;;;;;5035708;28;20523;-66
2023/02/09 05:23:01;;;;;;;0.65;0.65;;;-5.00;94.10;;;;;;5035490;28;20172;-66
2023/02/09 05:25:26;;;;;;;2.65;2.53;;;-5.00;94.10;;;;;;5035101;28;20536;-66
2023/02/09 05:27:52;;;;;;;0.53;0.53;;;-4.90;94.00;;;;;;5035407;28;20266;-66
2023/02/09 05:30:18;;;;;;;2.13;2.07;;;-4.90;93.60;;;;;;5035263;28;20444;-66
2023/02/09 05:32:43;;;;;;;0.90;0.90;;;-4.80;93.60;;;;;;5035357;28;20217;-66
2023/02/09 05:35:09;;;;;;;0.73;0.73;;;-4.90;93.70;;;;;;5034959;28;20624;-66
2023/02/09 05:37:35;;;;;;;1.03;1.03;;;-4.90;93.80;;;;;;5035088;28;20171;-66
2023/02/09 05:40:00;;;;;;;0.50;0.50;;;-4.90;96.50;;;;;;5035052;28;20233;-66
2023/02/09 05:42:26;;;;;;;2.00;1.90;;;-4.90;94.00;;;;;;5035067;28;20635;-66
2023/02/09 05:44:52;;;;;;;0.65;0.65;;;-4.90;94.00;;;;;;5034631;28;20175;-66
2023/02/09 05:47:20;;;;;;;1.57;1.50;;;-5.00;93.80;;;;;;5034792;28;20202;-66
2023/02/09 05:49:46;;;;;;;0.55;0.55;;;-5.00;93.90;;;;;;5034518;28;20422;-66
2023/02/09 05:52:13;;;;;;;1.80;1.73;;;-4.90;93.70;;;;;;5034619;28;20572;-66
2023/02/09 05:54:39;;;;;;;0.90;0.90;;;-4.90;93.70;;;;;;5034639;28;20254;-66
2023/02/09 05:57:05;;;;;;;0.57;0.57;;;-4.80;93.70;;;;;;5034778;28;20629;-66
2023/02/09 05:59:31;;;;;;;0.70;0.70;;;-4.80;93.70;;;;;;5034792;28;20178;-67
2023/02/09 06:01:58;;;;;;;0.60;0.60;;;-4.80;93.60;;;;;;5034529;28;20659;-66
2023/02/09 06:04:24;;;;;;;0.70;0.70;;;-4.80;93.60;;;;;;5034383;28;20767;-67
2023/02/09 06:06:50;;;;;;;1.05;1.05;;;-4.80;93.70;;;;;;5034534;28;20213;-66
2023/02/09 06:09:15;;;;;;;1.17;1.17;;;-4.90;94.00;;;;;;5034533;28;20171;-66
2023/02/09 06:11:41;;;;;;;0.60;0.60;;;-4.90;93.90;;;;;;5034195;28;20199;-66
2023/02/09 06:14:06;;;;;;;0.80;0.80;;;-4.90;94.00;;;;;;5034402;28;20166;-66
2023/02/09 06:16:32;;;;;;;1.27;1.17;;;-4.80;94.00;;;;;;5034195;28;20199;-66
2023/02/09 06:18:58;;;;;;;0.70;0.70;;;-4.80;94.00;;;;;;5034304;28;20225;-66
2023/02/09 06:21:24;;;;;;;1.63;1.60;;;-4.80;93.90;;;;;;5034269;28;20192;-66
2023/02/09 06:23:50;;;;;;;0.57;0.57;;;-4.80;94.00;;;;;;5034336;28;20253;-66
2023/02/09 06:26:16;;;;;;;0.70;0.70;;;-4.80;93.90;;;;;;5033359;28;20302;-66
2023/02/09 06:28:43;;;;;;;1.02;1.02;;;-4.80;93.90;;;;;;5034724;28;20403;-66
2023/02/09 06:31:09;;;;;;;0.70;0.70;;;-4.80;94.00;;;;;;5033391;28;20561;-66
2023/02/09 06:33:36;;;;;;;1.48;1.48;;;-4.80;94.20;;;;;;5034295;28;20228;-67
2023/02/09 06:36:02;;;;;;;6.47;2.47;;;-4.70;94.20;;;;;;5033905;28;20183;-67
2023/02/09 06:38:32;;;;;;;0.85;0.85;;;-4.70;94.00;;;;;;5033331;28;20172;-66
2023/02/09 06:40:58;;;;;;;0.75;0.75;;;-4.70;93.80;;;;;;5033486;28;20687;-66
2023/02/09 06:43:24;;;;;;;0.60;0.60;;;-4.70;94.00;;;;;;5033036;28;20175;-66
2023/02/09 06:45:49;;;;;;;2.73;2.10;;;-4.70;94.20;;;;;;5033480;28;20196;-66
2023/02/09 06:48:15;;;;;;;0.80;0.80;;;-4.70;94.50;;;;;;5033765;28;20526;-66
2023/02/09 06:50:40;;;;;;;0.80;0.80;;;-4.70;94.50;;;;;;5033152;28;20206;-68
2023/02/09 06:53:06;;;;;;;0.93;0.93;;;-4.70;94.50;;;;;;5032879;28;20244;-67
2023/02/09 06:55:32;;;;;;;0.50;0.50;;;-4.70;94.40;;;;;;5033476;28;20167;-66
2023/02/09 06:57:58;;;;;;;2.28;1.73;;;-4.60;94.30;;;;;;5033681;28;20170;-67
2023/02/09 07:00:24;;;;;;;0.73;0.73;;;-4.60;94.10;;;;;;5032769;28;20649;-66
2023/02/09 07:02:50;;;;;;;0.50;0.50;;;-4.60;94.00;;;;;;5033898;28;20754;-67
2023/02/09 07:05:16;;;;;;;0.50;0.50;;;-4.60;94.10;;;;;;5033561;28;20201;-66
2023/02/09 07:07:43;;;;;;;0.40;0.40;;;-4.50;94.50;;;;;;5032725;28;20552;-66
2023/02/09 07:10:14;;;;;;;0.80;0.80;;;-4.30;94.60;;;;;;5033235;28;20193;-66
2023/02/09 07:12:44;;;;;;;0.45;0.45;;;-4.20;94.40;;;;;;5031743;28;20522;-66
2023/02/09 07:15:11;;;;;;;2.45;2.25;;;-4.20;93.90;;;;;;5033105;28;20181;-66
2023/02/09 07:17:37;;;;;;;0.40;0.40;;;-4.20;93.50;;;;;;5033404;28;20183;-67
2023/02/09 07:20:04;;;;;;;1.97;1.87;;;-4.20;93.30;;;;;;5033476;28;20179;-67
2023/02/09 07:22:29;;;;;;;0.40;0.40;;;-4.10;93.30;;;;;;5033323;28;20544;-66
2023/02/09 07:24:55;;;;;;;0.40;0.40;;;-4.10;93.20;;;;;;5033326;28;20183;-66
2023/02/09 07:27:21;;;;;;;0.60;0.60;;;-4.10;93.20;;;;;;5032003;28;20209;-66
2023/02/09 07:29:47;;;;;;;3.05;2.95;;;-4.00;93.50;;;;;;5031981;28;20175;-66
2023/02/09 07:32:13;;;;;;;0.50;0.50;;;-3.90;93.50;;;;;;5033379;28;20643;-66
2023/02/09 07:34:39;;;;;;;0.40;0.40;;;-3.70;93.60;;;;;;5033183;28;20225;-66
2023/02/09 07:37:05;;;;;;;0.63;0.63;;;-3.60;93.50;;;;;;5033442;28;20405;-66
2023/02/09 07:39:31;;;;;;;0.50;0.50;;;-3.40;93.40;;;;;;5033416;28;20175;-66
2023/02/09 07:41:57;;;;;;;0.40;0.40;;;-3.30;93.20;;;;;;5033184;28;20205;-66
2023/02/09 07:44:24;;;;;;;0.50;0.50;;;-3.30;93.00;;;;;;5033162;28;20539;-66
2023/02/09 07:46:50;;;;;;;0.90;0.90;;;-3.20;92.80;;;;;;5033327;28;20690;-66
2023/02/09 07:49:16;;;;;;;1.73;1.63;;;-3.10;92.60;;;;;;5033334;28;20178;-66
2023/02/09 07:51:42;;;;;;;0.50;0.50;;;-3.00;92.30;;;;;;5033264;28;20685;-66
2023/02/09 07:54:12;;;;;;;1.75;1.65;;;-3.00;91.90;;;;;;5033112;28;20401;-66
2023/02/09 07:56:38;;;;;;;0.63;0.63;;;-2.50;92.70;;;;;;5031728;28;20202;-67
2023/02/09 07:59:05;;;;;;;0.85;0.85;;;-1.40;93.50;;;;;;5033154;28;20255;-67
2023/02/09 08:01:31;;;;;;;0.40;0.40;;;0.20;94.00;;;;;;5033021;28;20197;-67
2023/02/09 08:03:57;;;;;;;2.45;2.35;;;1.80;93.00;;;;;;5033560;28;20182;-67
2023/02/09 08:06:36;;;;;;;3.30;3.20;;;3.10;88.80;;;;;;5032957;28;20203;-67
2023/02/09 08:09:01;;;;;;;2.08;1.98;;;4.30;83.50;;;;;;5033279;28;20169;-67
2023/02/09 08:11:42;;;;;;;2.83;2.63;;;5.30;74.20;;;;;;5033049;28;20193;-67
2023/02/09 08:14:19;;;;;;;1.73;0.93;;;6.20;69.00;;;;;;5035049;28;20408;-67
2023/02/09 08:16:46;;;;;;;1.83;1.73;;;7.00;63.80;;;;;;5036901;28;20182;-67
2023/02/09 08:19:18;;;;;;;2.35;2.25;;;7.80;60.00;;;;;;5036557;28;20171;-67
2023/02/09 08:21:46;;;;;;;2.23;2.03;;;8.30;56.30;;;;;;5036500;28;20245;-67
2023/02/09 08:24:15;;;;;;;20.57;4.27;;;9.00;54.90;;;;;;5036607;28;20405;-67
2023/02/09 08:26:41;;;;;;;2.80;2.60;;;9.60;52.90;;;;;;5036380;28;20567;-67
2023/02/09 08:29:08;;;;;;;2.20;1.27;;;10.20;50.30;;;;;;5036625;28;20480;-67
2023/02/09 08:31:33;;;;;;;2.43;1.83;;;10.80;48.50;;;;;;5036361;28;20423;-67
2023/02/09 08:33:59;;;;;;;3.90;3.53;;;11.60;46.80;;;;;;5036569;28;20454;-67
2023/02/09 08:36:25;;;;;;;2.23;2.13;;;12.20;45.50;;;;;;5036186;28;20171;-67
2023/02/09 08:38:50;;;;;;;4.67;4.23;;;12.90;43.90;;;;;;5036360;28;20182;-67
2023/02/09 08:41:17;;;;;;;3.60;3.30;;;13.50;41.70;;;;;;5036324;28;20650;-68
2023/02/09 08:43:50;;;;;;;1.33;1.23;;;14.10;41.00;;;;;;5036066;28;20168;-67
2023/02/09 08:46:16;;;;;;;3.37;3.07;;;14.50;40.30;;;;;;5034641;28;20462;-68
2023/02/09 08:48:44;;;;;;;3.23;1.43;;;14.60;38.50;;;;;;5036087;28;20485;-67
2023/02/09 08:51:12;;;;;;;1.80;1.70;;;14.70;38.40;;;;;;5036121;28;20942;-67
2023/02/09 08:53:38;;;;;;;4.00;2.23;;;14.50;37.90;;;;;;5036120;28;20396;-68
2023/02/09 08:56:04;;;;;;;2.20;1.70;;;14.30;38.40;;;;;;5035877;28;20762;-67
2023/02/09 08:58:32;;;;;;;4.43;1.43;;;14.30;38.60;;;;;;5036109;28;20411;-67
2023/02/09 09:00:59;;;;;;;4.83;3.07;;;14.50;38.50;;;;;;5035864;28;20420;-68
2023/02/09 09:03:27;;;;;;;1.73;1.63;;;14.60;37.30;;;;;;5036045;28;20406;-67
2023/02/09 09:06:03;;;;;;;0.73;0.73;;;14.40;38.10;;;;;;5035630;28;20864;-67
2023/02/09 09:08:30;;;;;;;2.93;2.53;;;14.20;38.00;;;;;;5035826;28;20413;-67
2023/02/09 09:10:56;;;;;;;2.73;2.57;;;14.00;38.60;;;;;;5035805;28;20784;-67
2023/02/09 09:13:25;;;;;;;2.83;1.80;;;13.90;38.80;;;;;;5035554;28;20419;-68
2023/02/09 09:15:52;;;;;;;4.73;2.20;;;14.20;38.60;;;;;;5035457;28;20240;-68
2023/02/09 09:18:18;;;;;;;4.30;3.83;;;14.70;38.00;;;;;;5035635;28;20889;-67
2023/02/09 09:20:44;;;;;;;2.90;1.90;;;15.20;37.90;;;;;;5035579;28;20425;-68
2023/02/09 09:23:10;;;;;;;3.10;2.90;;;15.80;37.50;;;;;;5035459;28;20175;-68
2023/02/09 09:25:38;;;;;;;3.03;2.40;;;16.40;37.20;;;;;;5034082;28;20173;-68
2023/02/09 09:28:03;;;;;;;1.93;1.00;;;17.00;36.10;;;;;;5035617;28;20163;-68
2023/02/09 09:30:29;;;;;;;2.30;2.10;;;17.80;35.60;;;;;;5035466;28;20413;-68
2023/02/09 09:32:55;;;;;;;1.70;1.60;;;18.50;34.70;;;;;;5035320;28;20254;-68
2023/02/09 09:35:20;;;;;;;2.20;2.10;;;19.00;34.30;;;;;;5035036;28;20216;-68
2023/02/09 09:37:46;;;;;;;1.97;1.40;;;19.30;32.70;;;;;;5035404;28;20167;-68
2023/02/09 09:40:25;;;;;;;3.03;2.03;;;19.30;32.80;;;;;;5035263;28;20292;-68
2023/02/09 09:42:56;;;;;;;2.33;2.00;;;19.30;32.80;;;;;;5035051;28;20190;-68
2023/02/09 09:45:26;;;;;;;1.70;1.60;;;19.00;32.90;;;;;;5035117;28;20418;-68
2023/02/09 09:47:55;;;;;;;1.70;1.60;;;19.30;33.40;;;;;;5035313;28;20862;-68
2023/02/09 09:50:28;;;;;;;1.20;1.13;;;20.00;32.80;;;;;;5035083;28;20775;-68
2023/02/09 09:53:07;;;;;;;4.57;2.50;;;19.70;32.00;;;;;;5034849;28;20385;-68
2023/02/09 09:55:35;;;;;;;3.70;3.03;;;19.40;32.50;;;;;;5034978;28;20495;-68
2023/02/09 09:58:04;;;;;;;2.00;1.90;;;19.70;33.20;;;;;;5034858;28;20405;-68
2023/02/09 10:00:38;;;;;;;4.03;2.30;;;20.20;32.40;;;;;;5034807;28;20444;-68
2023/02/09 10:03:16;;;;;;;1.87;1.57;;;20.80;31.80;;;;;;5034426;28;20504;-68
2023/02/09 10:05:43;;;;;;;1.10;1.10;;;21.10;31.10;;;;;;5034411;28;20409;-68
2023/02/09 10:08:30;;;;;;;3.03;2.33;;;20.70;29.80;;;;;;5034660;28;20380;-68
2023/02/09 10:11:02;;;;;;;2.07;1.80;;;20.00;30.20;;;;;;5034568;28;20436;-68
2023/02/09 10:13:36;;;;;;;0.90;0.90;;;19.50;30.20;;;;;;5034370;28;20440;-66
2023/02/09 10:16:02;;;;;;;1.20;1.20;;;19.00;30.60;;;;;;5034284;28;20763;-66
2023/02/09 10:18:29;;;;;;;1.30;1.20;;;18.60;30.60;;;;;;5034394;28;20411;-66
2023/02/09 10:21:05;;;;;;;1.60;1.33;;;18.20;31.20;;;;;;5034332;28;20936;-66
2023/02/09 10:24:03;;;;;;;1.63;1.50;;;17.80;31.10;;;;;;5034408;28;20484;-66
2023/02/09 10:26:30;;;;;;;2.10;1.80;;;17.70;32.40;;;;;;5031012;28;20466;-66
2023/02/09 10:28:59;;;;;;;2.83;2.00;;;17.60;32.50;;;;;;5034240;28;20492;-66
2023/02/09 10:31:28;;;;;;;0.83;0.83;;;17.80;32.40;;;;;;5034097;28;20457;-66
2023/02/09 10:34:02;;;;;;;1.17;1.10;;;17.70;31.60;;;;;;5034245;28;20504;-66
2023/02/09 10:36:38;;;;;;;5.60;2.00;;;17.00;31.70;;;;;;5033832;28;20410;-66
2023/02/09 10:39:10;;;;;;;2.30;1.27;;;16.20;32.40;;;;;;5034074;28;20797;-66
2023/02/09 10:41:39;;;;;;;4.23;3.50;;;16.40;33.40;;;;;;5033992;28;20810;-66
2023/02/09 10:44:27;;;;;;;1.20;1.17;;;16.10;33.10;;;;;;5034072;28;20891;-66
2023/02/09 10:47:25;;;;;;;1.17;1.10;;;15.50;33.90;;;;;;5033987;28;20540;-66
2023/02/09 10:49:52;;;;;;;2.30;1.30;;;15.90;33.70;;;;;;5034083;28;20398;-66
2023/02/09 10:52:21;;;;;;;2.83;2.33;;;15.30;33.80;;;;;;5033931;28;20413;-66
2023/02/09 10:54:55;;;;;;;2.37;1.60;;;14.80;33.90;;;;;;5033890;28;20415;-66
2023/02/09 10:57:39;;;;;;;2.67;1.90;;;14.60;34.80;;;;;;5033975;28;20413;-65
2023/02/09 11:00:16;;;;;;;1.27;1.00;;;13.90;35.50;;;;;;5033664;28;20403;-66
2023/02/09 11:02:49;;;;;;;1.50;1.40;;;13.80;35.90;;;;;;5033636;28;20406;-66
2023/02/09 11:05:21;;;;;;;1.37;1.27;;;13.90;36.70;;;;;;5033660;28;20496;-65
2023/02/09 11:07:56;;;;;;;4.00;3.60;;;13.20;36.30;;;;;;5033654;28;20453;-65
2023/02/09 11:10:23;;;;;;;0.63;0.63;;;12.90;36.50;;;;;;5032327;28;20448;-65
2023/02/09 11:12:48;;;;;;;1.43;1.17;;;12.50;37.70;;;;;;5032781;28;20525;-68
2023/02/09 11:15:20;;;;;;;1.40;1.20;;;12.10;38.10;;;;;;5032762;28;20489;-66
2023/02/09 11:17:51;;;;;;;2.15;1.27;;;12.00;39.10;;;;;;5033009;28;20175;-65
2023/02/09 11:20:42;;;;;;;3.13;2.80;;;11.90;39.10;;;;;;5031958;28;20555;-67
2023/02/09 11:23:37;;;;;;;1.10;1.10;;;11.30;40.30;;;;;;5033514;28;20412;-68
2023/02/09 11:26:11;;;;;;;2.33;2.22;;;10.90;40.00;;;;;;5031129;28;20461;-67
2023/02/09 11:28:50;;;;;;;3.80;2.50;;;10.10;42.10;;;;;;5033553;28;20167;-67
2023/02/09 11:31:35;;;;;;;2.58;2.38;;;9.70;43.40;;;;;;5032606;28;20565;-69
2023/02/09 11:34:28;;;;;;;1.38;1.27;;;8.80;43.40;;;;;;5033313;28;20175;-69
2023/02/09 11:37:25;;;;;;;1.67;1.67;;;8.00;45.60;;;;;;5032925;28;20228;-69
2023/02/09 11:40:04;;;;;;;2.35;1.15;;;7.40;46.50;;;;;;5033577;28;20536;-70
2023/02/09 11:42:45;;;;;;;1.80;1.38;;;7.40;48.00;;;;;;5033180;28;20172;-69
2023/02/09 11:45:36;;;;;;;2.00;1.90;;;7.80;47.50;;;;;;5033405;28;20184;-69
2023/02/09 11:48:31;;;;;;;0.90;0.90;;;7.80;47.00;;;;;;5033281;28;20232;-69
2023/02/09 11:51:09;;;;;;;1.15;1.05;;;7.90;47.10;;;;;;5031191;28;20204;-71
2023/02/09 11:53:44;;;;;;;0.80;0.80;;;7.90;47.70;;;;;;5036957;28;20220;-71
2023/02/09 11:56:13;;;;;;;2.08;1.48;;;7.80;47.50;;;;;;5036659;28;20182;-70
2023/02/09 11:58:56;;;;;;;1.90;1.80;;;7.70;47.40;;;;;;5036288;28;20208;-71
2023/02/09 12:02:01;;;;;;;3.40;1.67;;;7.80;47.60;;;;;;5037131;28;20193;-71
2023/02/09 12:04:59;;;;;;;0.80;0.80;;;7.70;47.70;;;;;;5036868;28;20173;-70
2023/02/09 12:07:57;;;;;;;1.48;1.45;;;7.50;48.00;;;;;;5036940;28;20227;-71
2023/02/09 12:10:48;;;;;;;1.23;1.13;;;6.80;48.30;;;;;;5036909;28;20653;-71
2023/02/09 12:13:25;;;;;;;1.60;1.50;;;6.60;49.70;;;;;;5036756;28;20193;-70
2023/02/09 12:15:54;;;;;;;1.00;1.00;;;6.70;50.10;;;;;;5036638;28;20179;-70
2023/02/09 12:18:24;;;;;;;1.35;1.13;;;6.80;52.30;;;;;;5036876;28;20272;-69
2023/02/09 12:20:55;;;;;;;1.75;1.65;;;6.70;50.80;;;;;;5035922;28;20197;-69
2023/02/09 12:23:34;;;;;;;1.80;1.80;;;6.90;50.40;;;;;;5036601;28;20239;-69
2023/02/09 12:26:25;;;;;;;5.15;4.68;;;6.80;50.30;;;;;;5036458;28;20621;-71
2023/02/09 12:29:21;;;;;;;3.30;3.10;;;6.50;49.60;;;;;;5035378;28;20175;-70
2023/02/09 12:32:05;;;;;;;0.75;0.75;;;6.20;49.90;;;;;;5035142;28;20195;-70
2023/02/09 12:34:40;;;;;;;2.20;2.10;;;6.40;50.80;;;;;;5035066;28;20240;-69
2023/02/09 12:37:12;;;;;;;1.38;0.60;;;6.60;50.20;;;;;;5036486;28;20172;-69
2023/02/09 12:39:57;;;;;;;0.68;0.68;;;6.70;51.90;;;;;;5036277;28;20258;-69
2023/02/09 12:42:26;;;;;;;3.10;1.25;;;6.40;51.10;;;;;;5036139;28;20174;-70
2023/02/09 12:44:54;;;;;;;2.30;2.17;;;6.10;50.50;;;;;;5036093;28;20199;-69
2023/02/09 12:48:08;;;;;;;3.33;3.03;;;6.20;50.70;;;;;;5036216;28;20234;-70
2023/02/09 12:50:46;;;;;;;2.28;2.17;;;6.00;49.60;;;;;;5014108;28;20227;-69
2023/02/09 12:53:20;;;;;;;2.70;2.20;;;5.80;49.70;;;;;;5014315;28;20195;-69
2023/02/09 12:56:23;;;;;;;1.58;1.45;;;5.30;51.00;;;;;;5028793;28;20183;-69
2023/02/09 12:58:48;;;;;;;1.05;1.05;;;5.10;52.00;;;;;;5036226;28;20240;-70
2023/02/09 13:01:15;;;;;;;0.87;0.87;;;5.00;52.10;;;;;;5035871;28;20667;-69
2023/02/09 13:04:03;;;;;;;1.23;1.13;;;4.80;52.10;;;;;;5035756;28;20533;-70
2023/02/09 13:06:39;;;;;;;0.82;0.82;;;4.80;52.30;;;;;;5035662;28;20264;-70
2023/02/09 13:09:12;;;;;;;0.60;0.60;;;4.80;52.70;;;;;;5035726;28;20636;-70
2023/02/09 13:11:50;;;;;;;2.33;2.22;;;4.80;52.60;;;;;;5035593;28;20206;-70